createdAt,value
2023-02-28T00:00:13.107Z,70.10
2023-02-28T00:02:41.310Z,71.04
2023-02-28T00:05:09.194Z,70.44
2023-02-28T00:07:36.565Z,70.59
2023-02-28T00:10:04.196Z,70.21
2023-02-28T00:12:31.033Z,70.15
2023-02-28T00:14:57.396Z,70.24
2023-02-28T00:17:24.624Z,70.27
2023-02-28T00:19:52.210Z,70.15
2023-02-28T00:22:21.063Z,70.08
2023-02-28T00:24:48.334Z,70.87
2023-02-28T00:27:15.746Z,70.45
2023-02-28T00:29:42.524Z,69.96
2023-02-28T00:32:08.969Z,70.21
2023-02-28T00:34:38.813Z,70.13
2023-02-28T00:37:07.444Z,69.97
2023-02-28T00:39:38.362Z,70.11
2023-02-28T00:42:05.296Z,69.84
2023-02-28T00:44:31.904Z,70.00
2023-02-28T00:46:59.862Z,70.58
2023-02-28T00:49:28.499Z,70.70
2023-02-28T00:51:56.362Z,70.54
2023-02-28T00:54:24.342Z,71.35
2023-02-28T00:56:51.428Z,71.43
2023-02-28T00:59:18.621Z,71.10
2023-02-28T01:01:46.674Z,71.97
2023-02-28T01:04:15.058Z,72.20
2023-02-28T01:06:41.965Z,71.81
2023-02-28T01:09:08.860Z,71.69
2023-02-28T01:11:36.173Z,72.08
2023-02-28T01:14:03.379Z,72.21
2023-02-28T01:16:29.792Z,72.05
2023-02-28T01:18:56.546Z,72.35
2023-02-28T01:21:23.703Z,72.51
2023-02-28T01:23:50.705Z,72.54
2023-02-28T01:26:22.063Z,72.71
2023-02-28T01:28:50.479Z,72.67
2023-02-28T01:31:19.152Z,72.84
2023-02-28T01:33:46.545Z,72.18
2023-02-28T01:36:17.078Z,72.15
2023-02-28T01:38:44.818Z,72.28
2023-02-28T01:41:21.688Z,72.67
2023-02-28T01:43:48.234Z,72.93
2023-02-28T01:46:15.716Z,73.16
2023-02-28T01:48:48.113Z,73.93
2023-02-28T01:51:24.401Z,73.25
2023-02-28T01:53:56.710Z,73.20
2023-02-28T01:56:28.587Z,73.57
2023-02-28T01:58:56.221Z,73.42
2023-02-28T02:01:24.425Z,73.20
2023-02-28T02:04:00.316Z,73.41
2023-02-28T02:06:31.780Z,73.70
2023-02-28T02:08:58.438Z,73.60
2023-02-28T02:11:26.720Z,73.61
2023-02-28T02:14:05.333Z,73.27
2023-02-28T02:16:52.983Z,73.33
2023-02-28T02:19:47.680Z,73.19
2023-02-28T02:22:51.294Z,73.04
2023-02-28T02:25:32.473Z,74.01
2023-02-28T02:28:17.406Z,74.67
2023-02-28T02:31:13.469Z,74.73
2023-02-28T02:34:01.027Z,74.15
2023-02-28T02:36:39.929Z,74.75
2023-02-28T02:39:28.762Z,74.63
2023-02-28T02:41:57.682Z,74.80
2023-02-28T02:44:45.607Z,74.47
2023-02-28T02:47:16.078Z,74.13
2023-02-28T02:49:48.659Z,74.38
2023-02-28T02:52:19.533Z,74.93
2023-02-28T02:54:49.047Z,75.17
2023-02-28T02:57:25.214Z,74.73
2023-02-28T02:59:56.383Z,74.89
2023-02-28T03:02:24.444Z,75.22
2023-02-28T03:05:01.785Z,74.36
2023-02-28T03:07:28.895Z,74.60
2023-02-28T03:09:58.473Z,73.95
2023-02-28T03:12:34.002Z,74.11
2023-02-28T03:15:13.789Z,73.48
2023-02-28T03:18:02.421Z,73.09
2023-02-28T03:20:39.818Z,72.68
2023-02-28T03:23:17.492Z,72.87
2023-02-28T03:25:49.976Z,72.43
2023-02-28T03:28:37.971Z,72.28
2023-02-28T03:31:13.990Z,72.39
2023-02-28T03:33:46.950Z,72.43
2023-02-28T03:36:19.193Z,72.30
2023-02-28T03:38:52.096Z,72.08
2023-02-28T03:41:23.838Z,72.10
2023-02-28T03:44:00.593Z,72.09
2023-02-28T03:46:32.279Z,72.85
2023-02-28T03:49:06.037Z,72.97
2023-02-28T03:51:33.777Z,72.72
2023-02-28T03:54:08.294Z,72.51
2023-02-28T03:56:50.264Z,72.67
2023-02-28T03:59:29.365Z,72.68
2023-02-28T04:01:56.288Z,72.70
2023-02-28T04:04:23.610Z,73.34
2023-02-28T04:06:51.908Z,73.32
2023-02-28T04:09:18.397Z,73.13
2023-02-28T04:11:53.178Z,72.70
2023-02-28T04:14:19.936Z,72.58
2023-02-28T04:16:46.825Z,72.65
2023-02-28T04:19:15.349Z,73.03
2023-02-28T04:21:50.947Z,72.98
2023-02-28T04:24:23.718Z,73.00
2023-02-28T04:26:52.660Z,73.12
2023-02-28T04:29:28.281Z,73.64
2023-02-28T04:31:55.758Z,73.38
2023-02-28T04:34:22.319Z,73.99
2023-02-28T04:37:10.371Z,73.99
2023-02-28T04:39:38.766Z,73.86
2023-02-28T04:42:05.332Z,73.64
2023-02-28T04:44:32.413Z,74.32
2023-02-28T04:46:58.815Z,74.51
2023-02-28T04:49:25.212Z,74.09
2023-02-28T04:51:51.819Z,73.94
2023-02-28T04:54:18.994Z,74.14
2023-02-28T04:56:45.820Z,74.04
2023-02-28T04:59:12.183Z,73.95
2023-02-28T05:01:39.219Z,74.25
2023-02-28T05:04:05.750Z,74.09
2023-02-28T05:06:34.105Z,74.24
2023-02-28T05:09:00.778Z,74.77
2023-02-28T05:11:35.858Z,74.30
2023-02-28T05:14:04.783Z,74.75
2023-02-28T05:16:32.559Z,74.19
2023-02-28T05:18:59.230Z,74.29
2023-02-28T05:21:35.684Z,74.12
2023-02-28T05:24:06.009Z,73.54
2023-02-28T05:26:36.720Z,73.79
2023-02-28T05:29:03.384Z,73.46
2023-02-28T05:31:30.100Z,72.95
2023-02-28T05:33:56.685Z,72.81
2023-02-28T05:36:23.263Z,72.37
2023-02-28T05:38:51.225Z,72.24
2023-02-28T05:41:20.224Z,71.77
2023-02-28T05:43:47.687Z,71.86
2023-02-28T05:46:14.494Z,71.69
2023-02-28T05:48:42.385Z,71.11
2023-02-28T05:51:09.894Z,70.50
2023-02-28T05:53:37.040Z,70.38
2023-02-28T05:56:04.669Z,70.78
2023-02-28T05:58:32.037Z,70.42
2023-02-28T06:01:20.071Z,70.28
2023-02-28T06:03:46.894Z,70.44
2023-02-28T06:06:13.313Z,70.28
2023-02-28T06:08:40.129Z,70.24
2023-02-28T06:11:07.559Z,69.68
2023-02-28T06:13:33.954Z,69.12
2023-02-28T06:16:03.456Z,69.23
2023-02-28T06:18:30.047Z,68.66
2023-02-28T06:20:56.803Z,68.66
2023-02-28T06:23:23.301Z,68.69
2023-02-28T06:25:50.422Z,68.35
2023-02-28T06:28:17.460Z,68.87
2023-02-28T06:30:46.386Z,68.12
2023-02-28T06:33:12.985Z,68.06
2023-02-28T06:35:39.402Z,68.35
2023-02-28T06:38:05.797Z,68.25
2023-02-28T06:40:35.047Z,67.65
2023-02-28T06:43:01.529Z,67.63
2023-02-28T06:45:27.895Z,67.25
2023-02-28T06:47:54.551Z,66.95
2023-02-28T06:50:21.441Z,67.30
2023-02-28T06:52:48.371Z,66.87
2023-02-28T06:55:14.880Z,66.55
2023-02-28T06:57:41.283Z,66.60
2023-02-28T07:00:09.757Z,66.58
2023-02-28T07:02:37.393Z,65.63
2023-02-28T07:05:04.957Z,65.66
2023-02-28T07:07:31.458Z,65.53
2023-02-28T07:09:57.839Z,65.50
2023-02-28T07:12:24.278Z,65.18
2023-02-28T07:14:50.927Z,65.17
2023-02-28T07:17:17.308Z,64.55
2023-02-28T07:19:44.101Z,64.27
2023-02-28T07:22:10.628Z,64.51
2023-02-28T07:24:37.203Z,63.93
2023-02-28T07:27:03.883Z,64.35
2023-02-28T07:29:30.711Z,64.06
2023-02-28T07:31:57.327Z,63.96
2023-02-28T07:34:24.253Z,63.91
2023-02-28T07:36:54.425Z,64.03
2023-02-28T07:39:22.196Z,64.31
2023-02-28T07:41:48.717Z,63.65
2023-02-28T07:44:15.644Z,63.89
2023-02-28T07:46:42.149Z,63.67
2023-02-28T07:49:08.712Z,64.01
2023-02-28T07:51:35.082Z,63.97
2023-02-28T07:54:02.011Z,63.91
2023-02-28T07:56:28.785Z,63.91
2023-02-28T07:58:55.483Z,64.36
2023-02-28T08:01:22.756Z,63.44
2023-02-28T08:03:49.551Z,64.30
2023-02-28T08:06:18.763Z,64.09
2023-02-28T08:08:45.450Z,64.08
2023-02-28T08:11:11.844Z,63.69
2023-02-28T08:13:38.217Z,63.98
2023-02-28T08:16:05.203Z,64.04
2023-02-28T08:18:33.201Z,63.59
2023-02-28T08:21:00.188Z,63.71
2023-02-28T08:23:26.800Z,63.71
2023-02-28T08:25:57.203Z,63.23
2023-02-28T08:28:26.771Z,63.22
2023-02-28T08:30:53.859Z,62.22
2023-02-28T08:33:20.269Z,62.09
2023-02-28T08:35:46.712Z,63.05
2023-02-28T08:38:13.117Z,62.58
2023-02-28T08:40:39.560Z,62.16
2023-02-28T08:43:05.965Z,62.25
2023-02-28T08:45:32.412Z,62.69
2023-02-28T08:47:58.836Z,62.36
2023-02-28T08:50:25.620Z,61.76
2023-02-28T08:52:52.006Z,61.85
2023-02-28T08:55:18.398Z,62.08
2023-02-28T08:57:44.819Z,62.00
2023-02-28T09:00:14.454Z,62.12
2023-02-28T09:02:43.649Z,61.88
2023-02-28T09:05:10.520Z,61.66
2023-02-28T09:07:36.956Z,61.68
2023-02-28T09:10:03.530Z,61.83
2023-02-28T09:12:35.511Z,61.37
2023-02-28T09:15:02.838Z,61.23
2023-02-28T09:17:30.636Z,61.06
2023-02-28T09:19:57.991Z,60.87
2023-02-28T09:22:24.862Z,60.39
2023-02-28T09:24:51.271Z,60.46
2023-02-28T09:27:18.129Z,60.02
2023-02-28T09:29:44.606Z,59.33
2023-02-28T09:32:11.452Z,59.49
2023-02-28T09:34:38.490Z,59.63
2023-02-28T09:37:05.184Z,59.04
2023-02-28T09:39:32.607Z,59.06
2023-02-28T09:41:59.676Z,59.28
2023-02-28T09:44:32.611Z,58.66
2023-02-28T09:47:06.115Z,58.82
2023-02-28T09:49:43.392Z,58.66
2023-02-28T09:52:14.657Z,58.36
2023-02-28T09:54:41.493Z,58.42
2023-02-28T09:57:09.650Z,58.82
2023-02-28T10:00:19.462Z,58.21
2023-02-28T10:03:13.397Z,58.36
2023-02-28T10:05:45.264Z,58.34
2023-02-28T10:08:19.364Z,58.66
2023-02-28T10:10:49.419Z,58.61
2023-02-28T10:13:25.197Z,58.04
2023-02-28T10:15:57.306Z,58.33
2023-02-28T10:18:31.824Z,57.59
2023-02-28T10:20:59.444Z,57.31
2023-02-28T10:23:37.004Z,57.06
2023-02-28T10:26:13.914Z,57.91
2023-02-28T10:28:41.114Z,58.52
2023-02-28T10:31:12.621Z,57.81
2023-02-28T10:33:39.025Z,57.88
2023-02-28T10:36:07.772Z,57.65
2023-02-28T10:38:40.536Z,57.56
2023-02-28T10:41:09.593Z,57.70
2023-02-28T10:43:37.519Z,57.27
2023-02-28T10:46:10.702Z,56.42
2023-02-28T10:48:45.705Z,57.25
2023-02-28T10:51:17.267Z,57.88
2023-02-28T10:53:59.649Z,57.00
2023-02-28T10:56:27.712Z,57.19
2023-02-28T10:59:14.953Z,55.38
2023-02-28T11:01:53.794Z,56.52
2023-02-28T11:04:23.389Z,56.30
2023-02-28T11:07:07.988Z,56.08
2023-02-28T11:09:39.580Z,55.98
2023-02-28T11:12:10.245Z,55.83
2023-02-28T11:14:53.076Z,55.85
2023-02-28T11:17:27.007Z,56.56
2023-02-28T11:20:00.046Z,55.65
2023-02-28T11:22:29.777Z,56.14
2023-02-28T11:25:00.399Z,56.59
2023-02-28T11:27:41.039Z,56.58
2023-02-28T11:30:24.556Z,56.41
2023-02-28T11:32:51.290Z,56.17
2023-02-28T11:35:28.059Z,55.80
2023-02-28T11:37:54.818Z,55.57
2023-02-28T11:40:39.632Z,55.80
2023-02-28T11:43:22.474Z,55.83
2023-02-28T11:45:53.829Z,56.46
2023-02-28T11:48:32.012Z,56.77
2023-02-28T11:51:09.504Z,55.75
2023-02-28T11:53:51.141Z,56.18
2023-02-28T11:56:45.422Z,56.42
2023-02-28T11:59:36.548Z,56.83
2023-02-28T12:02:25.408Z,55.80
2023-02-28T12:05:17.350Z,55.78
2023-02-28T12:07:53.107Z,55.59
2023-02-28T12:10:29.781Z,55.88
2023-02-28T12:13:25.020Z,54.78
2023-02-28T12:16:19.500Z,54.68
2023-02-28T12:19:09.444Z,55.37
2023-02-28T12:22:23.367Z,55.48
2023-02-28T12:25:08.226Z,55.12
2023-02-28T12:27:39.778Z,54.76
2023-02-28T12:30:25.650Z,55.70
2023-02-28T12:32:57.935Z,55.56
2023-02-28T12:35:37.869Z,55.70
2023-02-28T12:38:25.533Z,55.29
2023-02-28T12:40:57.586Z,55.36
2023-02-28T12:43:31.250Z,55.39
2023-02-28T12:46:02.300Z,55.12
2023-02-28T12:48:38.766Z,55.10
2023-02-28T12:51:08.373Z,54.79
2023-02-28T12:53:59.824Z,54.70
2023-02-28T12:56:34.449Z,55.49
2023-02-28T12:59:42.789Z,54.88
2023-02-28T13:02:37.325Z,55.06
2023-02-28T13:05:41.272Z,54.47
2023-02-28T13:08:41.898Z,54.33
2023-02-28T13:11:21.031Z,55.12
2023-02-28T13:13:48.066Z,54.56
2023-02-28T13:16:14.473Z,54.10
2023-02-28T13:18:46.657Z,55.32
2023-02-28T13:21:31.054Z,54.11
2023-02-28T13:24:01.657Z,54.18
2023-02-28T13:26:31.060Z,54.36
2023-02-28T13:29:16.935Z,54.40
2023-02-28T13:32:25.728Z,54.14
2023-02-28T13:34:52.451Z,54.60
2023-02-28T13:37:18.776Z,54.58
2023-02-28T13:39:45.096Z,54.48
2023-02-28T13:42:31.719Z,54.64
2023-02-28T13:45:04.350Z,55.09
2023-02-28T13:47:39.927Z,54.74
2023-02-28T13:50:38.932Z,54.95
2023-02-28T13:53:27.597Z,54.74
2023-02-28T13:56:16.655Z,54.16
2023-02-28T13:58:52.328Z,54.25
2023-02-28T14:01:52.582Z,54.23
2023-02-28T14:04:51.288Z,54.16
2023-02-28T14:07:45.858Z,53.93
2023-02-28T14:10:25.393Z,54.31
2023-02-28T14:12:58.599Z,54.67
2023-02-28T14:15:34.241Z,54.70
2023-02-28T14:18:06.552Z,55.05
2023-02-28T14:20:35.013Z,54.67
2023-02-28T14:23:18.310Z,54.65
2023-02-28T14:26:06.013Z,54.70
2023-02-28T14:28:47.744Z,54.74
2023-02-28T14:31:20.638Z,54.40
2023-02-28T14:33:59.860Z,54.78
2023-02-28T14:36:32.731Z,54.79
2023-02-28T14:39:05.500Z,54.94
2023-02-28T14:41:36.303Z,55.36
2023-02-28T14:44:13.780Z,55.25
2023-02-28T14:46:42.618Z,55.21
2023-02-28T14:49:22.707Z,55.27
2023-02-28T14:52:02.279Z,55.10
2023-02-28T14:54:29.911Z,55.21
2023-02-28T14:56:56.576Z,54.94
2023-02-28T14:59:32.926Z,54.96
2023-02-28T15:02:23.210Z,54.99
2023-02-28T15:04:57.988Z,54.58
2023-02-28T15:07:29.523Z,54.95
2023-02-28T15:10:17.169Z,54.73
2023-02-28T15:12:52.117Z,55.63
2023-02-28T15:15:20.049Z,54.92
2023-02-28T15:17:51.101Z,55.32
2023-02-28T15:20:19.128Z,55.19
2023-02-28T15:22:48.139Z,55.38
2023-02-28T15:25:19.298Z,55.15
2023-02-28T15:27:50.464Z,55.72
2023-02-28T15:30:26.400Z,55.38
2023-02-28T15:33:24.267Z,55.64
2023-02-28T15:35:51.552Z,55.78
2023-02-28T15:38:24.543Z,56.00
2023-02-28T15:40:56.340Z,55.97
2023-02-28T15:43:37.451Z,56.42
2023-02-28T15:46:14.476Z,56.08
2023-02-28T15:48:51.954Z,56.19
2023-02-28T15:51:25.327Z,56.27
2023-02-28T15:53:59.810Z,56.35
2023-02-28T15:56:28.889Z,56.37
2023-02-28T15:59:04.043Z,56.61
2023-02-28T16:01:34.214Z,56.54
2023-02-28T16:04:20.931Z,56.91
2023-02-28T16:07:02.966Z,57.30
2023-02-28T16:09:33.056Z,57.47
2023-02-28T16:12:02.916Z,57.60
2023-02-28T16:14:31.705Z,57.44
2023-02-28T16:17:05.793Z,57.85
2023-02-28T16:19:33.885Z,57.47
2023-02-28T16:22:01.387Z,57.88
2023-02-28T16:24:28.074Z,58.26
2023-02-28T16:26:56.857Z,58.39
2023-02-28T16:29:30.618Z,58.19
2023-02-28T16:31:57.572Z,58.64
2023-02-28T16:34:24.781Z,58.96
2023-02-28T16:36:51.830Z,59.09
2023-02-28T16:39:19.729Z,59.17
2023-02-28T16:41:48.336Z,58.84
2023-02-28T16:44:25.469Z,59.15
2023-02-28T16:46:51.872Z,59.39
2023-02-28T16:49:18.286Z,59.70
2023-02-28T16:51:44.669Z,59.67
2023-02-28T16:54:11.157Z,59.49
2023-02-28T16:56:41.923Z,59.72
2023-02-28T16:59:10.967Z,59.95
2023-02-28T17:01:37.708Z,59.88
2023-02-28T17:04:04.267Z,59.91
2023-02-28T17:06:32.052Z,60.19
2023-02-28T17:09:00.152Z,60.50
2023-02-28T17:11:27.479Z,60.68
2023-02-28T17:13:57.219Z,60.71
2023-02-28T17:16:29.215Z,61.12
2023-02-28T17:18:59.824Z,60.72
2023-02-28T17:21:26.356Z,60.95
2023-02-28T17:23:52.780Z,60.96
2023-02-28T17:26:21.625Z,61.43
2023-02-28T17:28:49.305Z,61.30
2023-02-28T17:31:16.236Z,61.10
2023-02-28T17:33:42.741Z,61.30
2023-02-28T17:36:16.047Z,61.33
2023-02-28T17:38:42.722Z,61.33
2023-02-28T17:41:11.863Z,61.67
2023-02-28T17:43:38.803Z,61.52
2023-02-28T17:46:06.469Z,61.77
2023-02-28T17:48:34.211Z,61.79
2023-02-28T17:51:00.605Z,61.23
2023-02-28T17:53:28.105Z,61.57
2023-02-28T17:55:54.566Z,61.78
2023-02-28T17:58:20.990Z,61.81
2023-02-28T18:00:48.709Z,61.81
2023-02-28T18:03:15.220Z,62.00
2023-02-28T18:05:41.761Z,62.01
2023-02-28T18:08:11.424Z,61.95
2023-02-28T18:10:37.780Z,62.15
2023-02-28T18:13:04.678Z,62.20
2023-02-28T18:15:31.131Z,62.38
2023-02-28T18:17:57.637Z,62.43
2023-02-28T18:20:24.051Z,62.71
2023-02-28T18:22:50.532Z,62.76
2023-02-28T18:25:17.883Z,62.61
2023-02-28T18:27:54.241Z,62.94
2023-02-28T18:30:21.879Z,62.82
2023-02-28T18:32:48.753Z,62.71
2023-02-28T18:35:15.316Z,62.72
2023-02-28T18:37:41.998Z,63.23
2023-02-28T18:40:09.260Z,63.21
2023-02-28T18:42:35.955Z,63.08
2023-02-28T18:45:02.339Z,63.17
2023-02-28T18:47:29.022Z,63.25
2023-02-28T18:49:55.404Z,63.51
2023-02-28T18:52:21.788Z,63.47
2023-02-28T18:54:48.311Z,63.60
2023-02-28T18:57:15.230Z,63.90
2023-02-28T18:59:41.878Z,63.51
2023-02-28T19:02:09.020Z,64.08
2023-02-28T19:04:35.713Z,63.86
2023-02-28T19:07:02.874Z,63.74
2023-02-28T19:09:29.325Z,63.74
2023-02-28T19:11:55.710Z,64.11
2023-02-28T19:14:22.120Z,64.07
2023-02-28T19:16:50.122Z,64.47
2023-02-28T19:19:16.583Z,64.66
2023-02-28T19:21:42.979Z,64.54
2023-02-28T19:24:09.384Z,64.11
2023-02-28T19:26:35.926Z,64.51
2023-02-28T19:29:04.405Z,64.71
2023-02-28T19:31:31.137Z,64.29
2023-02-28T19:33:58.922Z,64.84
2023-02-28T19:36:25.483Z,64.78
2023-02-28T19:38:51.882Z,64.92
2023-02-28T19:41:18.765Z,65.07
2023-02-28T19:43:45.827Z,64.50
2023-02-28T19:46:12.650Z,64.81
2023-02-28T19:48:39.601Z,64.69
2023-02-28T19:51:09.472Z,64.93
2023-02-28T19:53:37.892Z,65.06
2023-02-28T19:56:04.747Z,64.86
2023-02-28T19:58:32.399Z,64.82
2023-02-28T20:01:01.262Z,65.30
2023-02-28T20:03:27.717Z,65.03
2023-02-28T20:06:09.876Z,65.11
2023-02-28T20:08:37.541Z,65.33
2023-02-28T20:11:15.577Z,65.59
2023-02-28T20:13:42.138Z,65.47
2023-02-28T20:16:11.132Z,65.23
2023-02-28T20:18:39.111Z,65.35
2023-02-28T20:21:08.983Z,65.27
2023-02-28T20:23:37.589Z,65.88
2023-02-28T20:26:04.365Z,65.43
2023-02-28T20:28:30.842Z,65.94
2023-02-28T20:30:57.573Z,65.91
2023-02-28T20:33:24.214Z,65.96
2023-02-28T20:35:52.706Z,66.17
2023-02-28T20:38:20.137Z,66.34
2023-02-28T20:40:46.967Z,66.47
2023-02-28T20:43:13.413Z,66.09
2023-02-28T20:45:40.271Z,66.41
2023-02-28T20:48:06.699Z,66.34
2023-02-28T20:50:33.089Z,66.75
2023-02-28T20:52:59.453Z,66.66
2023-02-28T20:55:25.869Z,67.06
2023-02-28T20:57:54.059Z,66.87
2023-02-28T21:00:22.373Z,67.02
2023-02-28T21:02:48.801Z,66.92
2023-02-28T21:05:15.559Z,66.84
2023-02-28T21:07:41.982Z,67.05
2023-02-28T21:10:09.685Z,66.71
2023-02-28T21:12:36.066Z,66.95
2023-02-28T21:15:02.530Z,67.38
2023-02-28T21:17:29.478Z,67.03
2023-02-28T21:19:55.894Z,66.96
2023-02-28T21:22:22.360Z,67.16
2023-02-28T21:24:48.741Z,66.83
2023-02-28T21:27:15.619Z,67.01
2023-02-28T21:29:42.344Z,66.80
2023-02-28T21:32:08.908Z,66.77
2023-02-28T21:34:35.312Z,67.05
2023-02-28T21:37:02.372Z,66.66
2023-02-28T21:39:30.307Z,66.85
2023-02-28T21:42:03.910Z,67.36
2023-02-28T21:44:32.175Z,67.27
2023-02-28T21:47:01.912Z,67.01
2023-02-28T21:49:29.410Z,67.56
2023-02-28T21:51:55.839Z,67.65
2023-02-28T21:54:22.658Z,67.43
2023-02-28T21:56:50.694Z,68.08
2023-02-28T21:59:17.756Z,67.64
2023-02-28T22:01:45.309Z,68.06
2023-02-28T22:04:21.126Z,67.84
2023-02-28T22:06:57.317Z,68.10
2023-02-28T22:09:24.023Z,67.81
2023-02-28T22:11:50.478Z,68.08
2023-02-28T22:14:17.324Z,67.90
2023-02-28T22:16:54.534Z,67.81
2023-02-28T22:19:22.703Z,67.75
2023-02-28T22:21:50.130Z,68.23
2023-02-28T22:24:20.103Z,67.84
2023-02-28T22:26:46.482Z,67.79
2023-02-28T22:29:12.858Z,67.55
2023-02-28T22:31:39.442Z,67.72
2023-02-28T22:34:08.830Z,67.96
2023-02-28T22:36:36.382Z,68.66
2023-02-28T22:39:04.756Z,68.79
2023-02-28T22:41:31.458Z,68.82
2023-02-28T22:44:01.529Z,68.73
2023-02-28T22:46:29.916Z,68.63
2023-02-28T22:48:58.296Z,68.55
2023-02-28T22:51:26.262Z,68.79
2023-02-28T22:53:54.282Z,68.60
2023-02-28T22:56:23.819Z,68.68
2023-02-28T22:58:56.253Z,68.91
2023-02-28T23:01:25.037Z,68.53
2023-02-28T23:03:52.113Z,68.79
2023-02-28T23:06:42.562Z,68.72
2023-02-28T23:09:15.373Z,68.87
2023-02-28T23:11:45.145Z,68.40
2023-02-28T23:14:13.241Z,68.48
2023-02-28T23:16:43.573Z,68.02
2023-02-28T23:19:14.346Z,68.01
2023-02-28T23:21:41.617Z,68.41
2023-02-28T23:24:12.233Z,68.61
2023-02-28T23:26:41.733Z,68.04
2023-02-28T23:29:08.823Z,68.40
2023-02-28T23:31:35.874Z,68.04
2023-02-28T23:34:02.445Z,68.19
2023-02-28T23:36:29.485Z,68.42
2023-02-28T23:38:56.196Z,68.78
2023-02-28T23:41:23.836Z,68.46
2023-02-28T23:43:52.417Z,68.21
2023-02-28T23:46:20.561Z,68.74
2023-02-28T23:48:46.982Z,68.47
2023-02-28T23:51:18.472Z,68.70
2023-02-28T23:53:47.285Z,67.98
2023-02-28T23:56:16.570Z,68.63
2023-02-28T23:58:44.513Z,68.11
